Terminal Aerodrome Forecast
Issued by NWS Charleston, WV

Home | Current Version | Previous Version | Text Only | Print | Product List | Glossary On
Versions: 1 2 3 4 5 6 7 8 9 10 11 12 13 14 15 16 17 18 19 20 21 22 23 24 25 26 27
689
FTUS41 KRLX 251124
TAFEKN
TAF
KEKN 251124Z 2512/2612 15003KT 4SM -SHRA BKN050 OVC090
     FM251400 21008KT 6SM -SHRA OVC050
     FM251500 27010G16KT P6SM OVC040
     FM251800 26012G24KT P6SM OVC040
     FM252100 27015G27KT P6SM BKN110=

USA.gov is the U.S. government's official web portal to all federal, state and local government web resources and services.